createdAt,value
2019-02-20T00:02:39.263Z,92399.05
2019-02-20T00:05:27.532Z,92393.16
2019-02-20T00:08:15.258Z,92395.40
2019-02-20T00:11:03.259Z,92397.47
2019-02-20T00:13:51.432Z,92397.13
2019-02-20T00:16:39.711Z,92401.33
2019-02-20T00:19:27.947Z,92396.30
2019-02-20T00:22:16.341Z,92395.83
2019-02-20T00:25:05.518Z,92390.20
2019-02-20T00:27:53.514Z,92394.61
2019-02-20T00:30:41.335Z,92383.80
2019-02-20T00:33:29.417Z,92388.03
2019-02-20T00:36:17.731Z,92390.66
2019-02-20T00:39:07.892Z,92386.14
2019-02-20T00:41:56.384Z,92385.23
2019-02-20T00:45:03.323Z,92384.59
2019-02-20T00:48:17.495Z,92382.69
2019-02-20T00:51:24.539Z,92382.97
2019-02-20T00:54:12.139Z,92386.20
2019-02-20T00:57:00.314Z,92369.46
2019-02-20T00:59:48.052Z,92373.52
2019-02-20T01:02:36.435Z,92370.13
2019-02-20T01:05:24.861Z,92367.95
2019-02-20T01:08:13.104Z,92372.90
2019-02-20T01:11:01.543Z,92365.83
2019-02-20T01:13:49.501Z,92371.11
2019-02-20T01:16:37.591Z,92369.44
2019-02-20T01:19:25.717Z,92364.88
2019-02-20T01:22:14.123Z,92363.80
2019-02-20T01:25:02.097Z,92363.08
2019-02-20T01:27:50.790Z,92361.01
2019-02-20T01:30:38.695Z,92356.66
2019-02-20T01:33:26.789Z,92355.47
2019-02-20T01:36:15.132Z,92356.70
2019-02-20T01:39:04.682Z,92353.56
2019-02-20T01:41:52.308Z,92342.59
2019-02-20T01:44:40.683Z,92346.58
2019-02-20T01:47:28.999Z,92344.45
2019-02-20T01:50:20.540Z,92342.38
2019-02-20T01:53:10.620Z,92338.88
2019-02-20T01:55:58.091Z,92339.74
2019-02-20T01:58:46.563Z,92337.75
2019-02-20T02:01:34.481Z,92326.84
2019-02-20T02:04:22.473Z,92339.53
2019-02-20T02:07:10.906Z,92336.45
2019-02-20T02:09:58.895Z,92336.67
2019-02-20T02:12:47.294Z,92334.08
2019-02-20T02:15:35.326Z,92327.66
2019-02-20T02:18:23.067Z,92330.60
2019-02-20T02:21:11.445Z,92332.06
2019-02-20T02:23:59.315Z,92331.80
2019-02-20T02:26:46.995Z,92331.55
2019-02-20T02:29:35.043Z,92326.36
2019-02-20T02:32:23.451Z,92326.50
2019-02-20T02:35:11.706Z,92324.80
2019-02-20T02:37:59.700Z,92325.48
2019-02-20T02:40:47.892Z,92332.58
2019-02-20T02:43:35.503Z,92328.46
2019-02-20T02:46:23.694Z,92324.06
2019-02-20T02:49:11.777Z,92325.53
2019-02-20T02:51:59.863Z,92324.20
2019-02-20T02:54:48.273Z,92323.50
2019-02-20T02:57:36.418Z,92329.45
2019-02-20T03:00:24.892Z,92333.28
2019-02-20T03:03:12.981Z,92325.90
2019-02-20T03:06:01.338Z,92330.30
2019-02-20T03:08:49.797Z,92327.39
2019-02-20T03:11:37.384Z,92333.41
2019-02-20T03:14:25.586Z,92335.64
2019-02-20T03:17:13.287Z,92332.63
2019-02-20T03:20:01.718Z,92332.99
2019-02-20T03:22:49.891Z,92338.42
2019-02-20T03:25:37.992Z,92341.70
2019-02-20T03:28:26.320Z,92340.53
2019-02-20T03:31:14.692Z,92338.36
2019-02-20T03:34:03.055Z,92331.45
2019-02-20T03:36:50.774Z,92326.47
2019-02-20T03:39:38.708Z,92332.52
2019-02-20T03:42:26.962Z,92329.61
2019-02-20T03:45:15.386Z,92328.46
2019-02-20T03:48:03.887Z,92329.49
2019-02-20T03:50:52.016Z,92327.14
2019-02-20T03:53:50.870Z,92327.37
2019-02-20T03:56:29.897Z,92326.45
2019-02-20T03:59:17.738Z,92327.38
2019-02-20T04:02:05.877Z,92328.16
2019-02-20T04:04:54.149Z,92322.52
2019-02-20T04:07:41.814Z,92329.60
2019-02-20T04:10:30.332Z,92326.01
2019-02-20T04:13:18.742Z,92328.78
2019-02-20T04:16:06.959Z,92327.86
2019-02-20T04:18:54.684Z,92330.23
2019-02-20T04:21:42.779Z,92335.64
2019-02-20T04:24:30.467Z,92334.42
2019-02-20T04:27:18.915Z,92333.50
2019-02-20T04:30:07.528Z,92330.98
2019-02-20T04:32:55.980Z,92333.47
2019-02-20T04:35:44.616Z,92322.37
2019-02-20T04:38:32.283Z,92324.56
2019-02-20T04:41:20.637Z,92324.84
2019-02-20T04:44:09.223Z,92334.03
2019-02-20T04:46:57.788Z,92322.00
2019-02-20T04:49:45.544Z,92333.88
2019-02-20T04:52:33.408Z,92329.00
2019-02-20T04:55:21.912Z,92330.99
2019-02-20T04:58:17.265Z,92331.91
2019-02-20T05:01:05.511Z,92327.66
2019-02-20T05:03:54.039Z,92334.72
2019-02-20T05:06:42.395Z,92329.39
2019-02-20T05:09:30.408Z,92333.46
2019-02-20T05:12:19.138Z,92332.52
2019-02-20T05:15:07.572Z,92333.53
2019-02-20T05:17:56.134Z,92329.95
2019-02-20T05:20:44.529Z,92334.91
2019-02-20T05:23:32.630Z,92331.05
2019-02-20T05:26:20.307Z,92333.30
2019-02-20T05:29:08.199Z,92334.12
2019-02-20T05:31:56.520Z,92336.72
2019-02-20T05:34:44.214Z,92339.62
2019-02-20T05:37:32.560Z,92345.89
2019-02-20T05:40:21.162Z,92343.86
2019-02-20T05:43:09.168Z,92350.73
2019-02-20T05:45:57.367Z,92359.77
2019-02-20T05:48:45.402Z,92359.73
2019-02-20T05:51:35.798Z,92362.61
2019-02-20T05:54:33.867Z,92365.77
2019-02-20T05:57:13.168Z,92372.23
2019-02-20T06:00:01.130Z,92377.59
2019-02-20T06:02:49.130Z,92382.39
2019-02-20T06:05:37.519Z,92379.39
2019-02-20T06:08:25.771Z,92389.70
2019-02-20T06:11:15.455Z,92391.50
2019-02-20T06:14:04.147Z,92392.23
2019-02-20T06:16:52.503Z,92397.50
2019-02-20T06:19:40.922Z,92397.76
2019-02-20T06:22:29.434Z,92398.84
2019-02-20T06:25:17.132Z,92400.13
2019-02-20T06:28:05.174Z,92401.09
2019-02-20T06:30:53.359Z,92403.88
2019-02-20T06:33:41.804Z,92404.06
2019-02-20T06:36:30.174Z,92403.38
2019-02-20T06:39:18.514Z,92403.18
2019-02-20T06:42:06.922Z,92405.08
2019-02-20T06:44:55.425Z,92410.22
2019-02-20T06:47:43.858Z,92405.08
2019-02-20T06:50:31.589Z,92409.88
2019-02-20T06:53:19.697Z,92412.16
2019-02-20T06:56:10.165Z,92422.48
2019-02-20T06:58:58.684Z,92413.45
2019-02-20T07:01:47.011Z,92413.70
2019-02-20T07:04:35.494Z,92407.41
2019-02-20T07:07:44.748Z,92410.23
2019-02-20T07:10:50.651Z,92408.50
2019-02-20T07:13:53.451Z,92407.69
2019-02-20T07:17:05.034Z,92399.69
2019-02-20T07:20:30.418Z,92401.92
2019-02-20T07:23:31.644Z,92407.69
2019-02-20T07:26:42.164Z,92400.70
2019-02-20T07:29:45.191Z,92390.14
2019-02-20T07:32:33.707Z,92395.12
2019-02-20T07:35:22.104Z,92388.34
2019-02-20T07:38:09.808Z,92378.95
2019-02-20T07:40:58.264Z,92383.63
2019-02-20T07:43:46.450Z,92375.72
2019-02-20T07:46:35.131Z,92379.66
2019-02-20T07:49:22.998Z,92381.02
2019-02-20T07:52:11.431Z,92374.81
2019-02-20T07:54:59.526Z,92380.63
2019-02-20T07:57:47.734Z,92377.50
2019-02-20T08:00:35.897Z,92374.62
2019-02-20T08:03:24.257Z,92373.72
2019-02-20T08:06:12.857Z,92369.19
2019-02-20T08:09:01.186Z,92365.62
2019-02-20T08:11:49.556Z,92363.20
2019-02-20T08:14:38.024Z,92370.61
2019-02-20T08:17:25.670Z,92360.30
2019-02-20T08:20:14.182Z,92358.70
2019-02-20T08:23:02.222Z,92360.47
2019-02-20T08:25:50.292Z,92355.48
2019-02-20T08:28:38.684Z,92362.76
2019-02-20T08:31:27.213Z,92351.28
2019-02-20T08:34:15.024Z,92352.03
2019-02-20T08:37:03.482Z,92354.09
2019-02-20T08:39:51.843Z,92349.28
2019-02-20T08:42:40.759Z,92347.81
2019-02-20T08:45:29.062Z,92348.94
2019-02-20T08:48:18.460Z,92349.78
2019-02-20T08:51:06.818Z,92354.28
2019-02-20T08:53:54.929Z,92347.92
2019-02-20T08:56:43.340Z,92347.42
2019-02-20T08:59:31.578Z,92340.65
2019-02-20T09:02:19.548Z,92340.40
2019-02-20T09:05:07.927Z,92335.13
2019-02-20T09:07:56.188Z,92338.06
2019-02-20T09:10:44.097Z,92334.98
2019-02-20T09:13:32.452Z,92334.63
2019-02-20T09:16:20.516Z,92330.39
2019-02-20T09:19:08.203Z,92325.52
2019-02-20T09:21:56.758Z,92324.23
2019-02-20T09:24:45.128Z,92322.76
2019-02-20T09:27:33.590Z,92322.28
2019-02-20T09:30:28.253Z,92325.13
2019-02-20T09:33:11.304Z,92321.61
2019-02-20T09:35:59.944Z,92321.75
2019-02-20T09:38:48.368Z,92321.58
2019-02-20T09:41:36.044Z,92324.19
2019-02-20T09:44:24.504Z,92314.94
2019-02-20T09:47:11.975Z,92307.27
2019-02-20T09:49:59.779Z,92308.45
2019-02-20T09:52:52.249Z,92306.50
2019-02-20T09:55:36.891Z,92300.23
2019-02-20T09:58:27.873Z,92297.38
2019-02-20T10:01:16.430Z,92295.33
2019-02-20T10:04:04.549Z,92293.97
2019-02-20T10:06:53.685Z,92285.68
2019-02-20T10:09:42.076Z,92279.75
2019-02-20T10:12:30.603Z,92276.17
2019-02-20T10:15:19.182Z,92271.90
2019-02-20T10:18:07.727Z,92262.02
2019-02-20T10:20:55.674Z,92265.01
2019-02-20T10:23:45.197Z,92258.95
2019-02-20T10:26:33.426Z,92250.84
2019-02-20T10:29:22.008Z,92245.61
2019-02-20T10:32:10.014Z,92244.42
2019-02-20T10:34:58.141Z,92240.22
2019-02-20T10:37:45.807Z,92240.17
2019-02-20T10:40:34.143Z,92225.60
2019-02-20T10:43:22.432Z,92218.53
2019-02-20T10:46:10.838Z,92216.38
2019-02-20T10:48:58.465Z,92219.05
2019-02-20T10:51:47.092Z,92213.23
2019-02-20T10:54:35.478Z,92211.28
2019-02-20T10:57:23.583Z,92206.26
2019-02-20T11:00:23.575Z,92208.25
2019-02-20T11:03:06.444Z,92212.10
2019-02-20T11:05:54.336Z,92205.78
2019-02-20T11:08:42.794Z,92204.70
2019-02-20T11:11:30.735Z,92204.29
2019-02-20T11:14:18.864Z,92199.30
2019-02-20T11:17:07.263Z,92194.72
2019-02-20T11:19:55.791Z,92197.70
2019-02-20T11:22:44.007Z,92198.08
2019-02-20T11:25:32.442Z,92193.86
2019-02-20T11:28:26.852Z,92194.55
2019-02-20T11:31:09.591Z,92188.22
2019-02-20T11:33:57.936Z,92184.34
2019-02-20T11:36:46.303Z,92185.27
2019-02-20T11:39:37.648Z,92183.92
2019-02-20T11:42:25.483Z,92187.44
2019-02-20T11:45:13.491Z,92188.17
2019-02-20T11:48:01.598Z,92184.52
2019-02-20T11:50:49.580Z,92180.42
2019-02-20T11:53:38.732Z,92174.77
2019-02-20T11:56:26.988Z,92171.23
2019-02-20T11:59:15.119Z,92172.55
2019-02-20T12:02:02.942Z,92179.29
2019-02-20T12:04:51.348Z,92173.16
2019-02-20T12:07:39.066Z,92165.05
2019-02-20T12:10:27.635Z,92163.67
2019-02-20T12:13:15.442Z,92160.97
2019-02-20T12:16:03.896Z,92153.02
2019-02-20T12:18:52.220Z,92147.65
2019-02-20T12:21:40.645Z,92144.99
2019-02-20T12:24:29.094Z,92148.22
2019-02-20T12:27:17.491Z,92141.58
2019-02-20T12:30:06.853Z,92148.00
2019-02-20T12:32:54.966Z,92151.83
2019-02-20T12:35:43.324Z,92154.14
2019-02-20T12:38:31.924Z,92148.61
2019-02-20T12:41:19.555Z,92150.70
2019-02-20T12:44:07.319Z,92151.25
2019-02-20T12:46:55.683Z,92148.48
2019-02-20T12:49:43.603Z,92144.34
2019-02-20T12:52:31.291Z,92148.80
2019-02-20T12:55:19.656Z,92138.31
2019-02-20T12:58:08.020Z,92148.54
2019-02-20T13:00:56.459Z,92143.59
2019-02-20T13:03:44.856Z,92145.00
2019-02-20T13:06:33.300Z,92144.37
2019-02-20T13:09:05.004Z,92149.52
2019-02-20T13:11:34.706Z,92145.66
2019-02-20T13:14:04.488Z,92145.38
2019-02-20T13:16:34.232Z,92151.05
2019-02-20T13:19:03.977Z,92144.13
2019-02-20T13:21:33.808Z,92147.30
2019-02-20T13:24:03.556Z,92154.58
2019-02-20T13:26:34.736Z,92153.52
2019-02-20T13:29:04.623Z,92148.48
2019-02-20T13:31:34.372Z,92152.11
2019-02-20T13:34:04.114Z,92152.55
2019-02-20T13:36:33.895Z,92156.32
2019-02-20T13:39:04.812Z,92159.73
2019-02-20T13:41:34.549Z,92148.05
2019-02-20T13:44:04.795Z,92147.97
2019-02-20T13:46:34.532Z,92152.19
2019-02-20T13:49:04.273Z,92149.81
2019-02-20T13:51:34.351Z,92151.92
2019-02-20T13:54:04.091Z,92156.83
2019-02-20T13:56:34.752Z,92149.20
2019-02-20T13:59:04.539Z,92161.12
2019-02-20T14:01:34.280Z,92156.95
2019-02-20T14:04:04.080Z,92163.12
2019-02-20T14:06:35.646Z,92160.20
2019-02-20T14:09:07.145Z,92160.20
2019-02-20T14:11:38.019Z,92162.52
2019-02-20T14:14:09.149Z,92158.13
2019-02-20T14:16:40.168Z,92158.25
2019-02-20T14:19:11.039Z,92156.25
2019-02-20T14:21:41.995Z,92161.66
2019-02-20T14:24:12.845Z,92156.84
2019-02-20T14:26:44.000Z,92156.14
2019-02-20T14:29:13.999Z,92152.16
2019-02-20T14:31:44.975Z,92151.38
2019-02-20T14:34:16.363Z,92157.84
2019-02-20T14:36:46.287Z,92150.36
2019-02-20T14:39:16.049Z,92147.59
2019-02-20T14:41:45.789Z,92143.69
2019-02-20T14:44:15.610Z,92143.84
2019-02-20T14:46:45.347Z,92143.55
2019-02-20T14:49:15.301Z,92142.95
2019-02-20T14:51:45.079Z,92138.94
2019-02-20T14:54:14.817Z,92148.94
2019-02-20T14:56:45.860Z,92146.45
2019-02-20T14:59:15.692Z,92147.89
2019-02-20T15:01:45.440Z,92148.97
2019-02-20T15:04:15.188Z,92153.61
2019-02-20T15:06:45.002Z,92148.32
2019-02-20T15:09:15.718Z,92149.31
2019-02-20T15:11:45.487Z,92151.72
2019-02-20T15:14:16.224Z,92150.00
2019-02-20T15:16:46.223Z,92146.67
2019-02-20T15:19:15.952Z,92146.16
2019-02-20T15:21:45.819Z,92142.47
2019-02-20T15:24:15.632Z,92140.36
2019-02-20T15:26:45.378Z,92136.10
2019-02-20T15:29:15.179Z,92130.28
2019-02-20T15:31:45.009Z,92137.78
2019-02-20T15:34:14.751Z,92137.26
2019-02-20T15:36:44.568Z,92138.83
2019-02-20T15:39:14.375Z,92145.03
2019-02-20T15:41:44.628Z,92151.56
2019-02-20T15:44:14.578Z,92148.69
2019-02-20T15:46:44.659Z,92149.76
2019-02-20T15:49:14.424Z,92153.98
2019-02-20T15:51:44.317Z,92152.95
2019-02-20T15:54:14.076Z,92156.59
2019-02-20T15:56:43.841Z,92158.31
2019-02-20T15:59:13.813Z,92157.85
2019-02-20T16:01:43.599Z,92166.57
2019-02-20T16:04:13.347Z,92168.45
2019-02-20T16:06:44.418Z,92172.09
2019-02-20T16:09:14.599Z,92174.92
2019-02-20T16:11:44.402Z,92180.70
2019-02-20T16:14:14.207Z,92174.41
2019-02-20T16:16:44.638Z,92178.28
2019-02-20T16:19:14.428Z,92188.53
2019-02-20T16:21:44.182Z,92195.25
2019-02-20T16:24:13.927Z,92192.14
2019-02-20T16:26:43.819Z,92194.16
2019-02-20T16:29:13.694Z,92194.25
2019-02-20T16:31:44.179Z,92198.63
2019-02-20T16:34:13.965Z,92200.56
2019-02-20T16:36:43.741Z,92210.61
2019-02-20T16:39:13.489Z,92212.49
2019-02-20T16:41:43.608Z,92210.19
2019-02-20T16:44:13.595Z,92214.69
2019-02-20T16:46:43.968Z,92223.42
2019-02-20T16:49:13.801Z,92221.38
2019-02-20T16:51:43.602Z,92231.70
2019-02-20T16:54:13.340Z,92231.36
2019-02-20T16:56:43.426Z,92235.05
2019-02-20T16:59:14.235Z,92234.33
2019-02-20T17:01:44.701Z,92235.15
2019-02-20T17:04:14.531Z,92242.56
2019-02-20T17:06:44.370Z,92247.91
2019-02-20T17:09:14.119Z,92251.30
2019-02-20T17:11:44.005Z,92259.44
2019-02-20T17:14:13.771Z,92262.17
2019-02-20T17:16:44.109Z,92263.27
2019-02-20T17:19:13.910Z,92265.58
2019-02-20T17:21:43.733Z,92265.30
2019-02-20T17:24:13.450Z,92271.52
2019-02-20T17:26:43.689Z,92270.89
2019-02-20T17:29:13.513Z,92279.58
2019-02-20T17:31:43.384Z,92279.55
2019-02-20T17:34:13.174Z,92283.83
2019-02-20T17:36:43.139Z,92286.30
2019-02-20T17:39:13.219Z,92294.50
2019-02-20T17:41:43.159Z,92295.36
2019-02-20T17:44:12.992Z,92300.27
2019-02-20T17:46:42.757Z,92301.27
2019-02-20T17:49:12.691Z,92314.58
2019-02-20T17:51:42.537Z,92308.38
2019-02-20T17:54:12.293Z,92308.28
2019-02-20T17:56:42.146Z,92315.20
2019-02-20T17:59:12.403Z,92317.78
2019-02-20T18:01:42.346Z,92323.73
2019-02-20T18:04:12.176Z,92324.59
2019-02-20T18:06:42.134Z,92327.77
2019-02-20T18:09:12.066Z,92331.64
2019-02-20T18:11:41.909Z,92338.51
2019-02-20T18:14:11.768Z,92339.80
2019-02-20T18:16:41.511Z,92340.42
2019-02-20T18:19:11.392Z,92350.88
2019-02-20T18:21:41.133Z,92346.25
2019-02-20T18:24:10.965Z,92346.71
2019-02-20T18:26:40.786Z,92352.33
2019-02-20T18:29:10.552Z,92357.17
2019-02-20T18:31:40.415Z,92356.60
2019-02-20T18:34:10.623Z,92363.45
2019-02-20T18:36:40.478Z,92365.63
2019-02-20T18:39:10.395Z,92367.51
2019-02-20T18:41:40.432Z,92364.18
2019-02-20T18:44:10.456Z,92371.47
2019-02-20T18:46:40.316Z,92370.55
2019-02-20T18:49:12.516Z,92378.33
2019-02-20T18:51:44.711Z,92379.18
2019-02-20T18:54:14.464Z,92384.95
2019-02-20T18:56:44.278Z,92385.98
2019-02-20T18:59:14.106Z,92389.67
2019-02-20T19:01:44.134Z,92394.38
2019-02-20T19:04:14.149Z,92395.09
2019-02-20T19:06:44.070Z,92401.14
2019-02-20T19:09:32.956Z,92398.99
2019-02-20T19:12:33.559Z,92410.84
2019-02-20T19:15:11.057Z,92415.41
2019-02-20T19:18:01.290Z,92416.39
2019-02-20T19:20:51.924Z,92416.16
2019-02-20T19:23:56.271Z,92414.73
2019-02-20T19:26:41.414Z,92421.81
2019-02-20T19:29:29.203Z,92424.03
2019-02-20T19:32:21.420Z,92430.67
2019-02-20T19:34:56.611Z,92429.17
2019-02-20T19:38:06.209Z,92430.39
2019-02-20T19:40:49.021Z,92432.15
2019-02-20T19:43:40.811Z,92432.28
2019-02-20T19:46:29.911Z,92440.60
2019-02-20T19:49:24.907Z,92445.20
2019-02-20T19:52:12.569Z,92445.81
2019-02-20T19:54:50.254Z,92453.05
2019-02-20T19:57:51.539Z,92458.34
2019-02-20T20:00:40.357Z,92459.98
2019-02-20T20:03:19.261Z,92465.84
2019-02-20T20:06:12.704Z,92462.18
2019-02-20T20:08:46.871Z,92458.62
2019-02-20T20:11:44.245Z,92461.43
2019-02-20T20:14:31.263Z,92461.32
2019-02-20T20:17:08.775Z,92461.89
2019-02-20T20:20:00.720Z,92457.30
2019-02-20T20:23:07.978Z,92464.13
2019-02-20T20:25:41.509Z,92465.88
2019-02-20T20:28:14.411Z,92461.49
2019-02-20T20:31:03.718Z,92462.09
2019-02-20T20:33:55.582Z,92466.44
2019-02-20T20:36:56.596Z,92466.53
2019-02-20T20:39:44.902Z,92467.86
2019-02-20T20:42:35.931Z,92469.56
2019-02-20T20:45:27.689Z,92466.60
2019-02-20T20:48:25.653Z,92463.09
2019-02-20T20:51:08.517Z,92473.52
2019-02-20T20:53:57.362Z,92472.82
2019-02-20T20:56:56.850Z,92475.43
2019-02-20T20:59:57.954Z,92478.94
2019-02-20T21:02:58.353Z,92480.55
2019-02-20T21:06:01.485Z,92477.25
2019-02-20T21:09:11.260Z,92481.79
2019-02-20T21:12:21.162Z,92487.05
2019-02-20T21:15:27.996Z,92486.58
2019-02-20T21:18:35.515Z,92491.56
2019-02-20T21:21:43.045Z,92486.56
2019-02-20T21:24:48.500Z,92488.61
2019-02-20T21:27:55.959Z,92489.22
2019-02-20T21:31:06.433Z,92494.13
2019-02-20T21:34:13.967Z,92497.61
2019-02-20T21:37:08.058Z,92508.03
2019-02-20T21:39:58.907Z,92505.23
2019-02-20T21:43:05.564Z,92502.05
2019-02-20T21:46:03.721Z,92497.39
2019-02-20T21:48:56.306Z,92497.44
2019-02-20T21:52:09.936Z,92498.55
2019-02-20T21:55:15.771Z,92506.03
2019-02-20T21:58:21.535Z,92510.30
2019-02-20T22:01:13.880Z,92509.42
2019-02-20T22:04:19.177Z,92516.27
2019-02-20T22:07:35.820Z,92511.13
2019-02-20T22:10:42.352Z,92512.48
2019-02-20T22:13:55.785Z,92514.06
2019-02-20T22:17:09.484Z,92511.47
2019-02-20T22:20:18.950Z,92517.00
2019-02-20T22:23:14.908Z,92515.56
2019-02-20T22:26:13.001Z,92513.69
2019-02-20T22:29:20.494Z,92519.45
2019-02-20T22:32:38.802Z,92524.64
2019-02-20T22:35:53.732Z,92522.64
2019-02-20T22:38:48.390Z,92525.23
2019-02-20T22:41:45.383Z,92531.02
2019-02-20T22:44:50.699Z,92527.70
2019-02-20T22:48:09.999Z,92526.98
2019-02-20T22:51:19.716Z,92530.95
2019-02-20T22:54:14.765Z,92534.56
2019-02-20T22:57:19.524Z,92533.73
2019-02-20T23:00:35.620Z,92535.80
2019-02-20T23:03:33.892Z,92543.03
2019-02-20T23:06:47.406Z,92541.47
2019-02-20T23:10:03.664Z,92537.33
2019-02-20T23:12:59.063Z,92536.30
2019-02-20T23:15:46.776Z,92535.50
2019-02-20T23:18:35.399Z,92536.88
2019-02-20T23:21:23.804Z,92531.44
2019-02-20T23:24:12.231Z,92532.54
2019-02-20T23:27:00.573Z,92539.77
2019-02-20T23:29:48.527Z,92532.16
2019-02-20T23:32:37.042Z,92532.62
2019-02-20T23:35:25.448Z,92537.11
2019-02-20T23:38:13.826Z,92533.42
2019-02-20T23:41:01.555Z,92528.10
2019-02-20T23:43:50.081Z,92525.08
2019-02-20T23:46:38.528Z,92535.75
2019-02-20T23:49:26.877Z,92535.06
2019-02-20T23:52:15.063Z,92541.21
2019-02-20T23:55:03.255Z,92545.44
2019-02-20T23:57:51.643Z,92540.50
